createdAt,value
2022-09-23T00:01:02.991Z,16.17
2022-09-23T00:03:30.862Z,15.75
2022-09-23T00:06:06.664Z,16.13
2022-09-23T00:08:33.931Z,16.50
2022-09-23T00:11:10.813Z,16.98
2022-09-23T00:13:38.884Z,15.55
2022-09-23T00:16:10.729Z,16.55
2022-09-23T00:18:37.506Z,14.73
2022-09-23T00:21:05.341Z,18.38
2022-09-23T00:23:32.342Z,20.17
2022-09-23T00:26:00.624Z,20.45
2022-09-23T00:28:27.154Z,19.15
2022-09-23T00:30:53.577Z,19.90
2022-09-23T00:33:19.991Z,17.63
2022-09-23T00:35:47.271Z,17.63
2022-09-23T00:38:14.274Z,19.08
2022-09-23T00:40:46.065Z,19.92
2022-09-23T00:43:14.726Z,19.73
2022-09-23T00:45:45.081Z,20.73
2022-09-23T00:48:17.080Z,21.83
2022-09-23T00:50:54.077Z,20.08
2022-09-23T00:53:23.936Z,17.67
2022-09-23T00:55:57.151Z,21.42
2022-09-23T00:58:31.107Z,19.05
2022-09-23T01:01:00.318Z,20.85
2022-09-23T01:03:27.112Z,20.23
2022-09-23T01:05:53.728Z,17.60
2022-09-23T01:08:22.092Z,16.75
2022-09-23T01:11:24.237Z,16.23
2022-09-23T01:14:16.134Z,15.93
2022-09-23T01:17:03.934Z,17.27
2022-09-23T01:19:36.321Z,17.08
2022-09-23T01:22:19.434Z,16.45
2022-09-23T01:25:34.127Z,17.75
2022-09-23T01:28:29.044Z,16.40
2022-09-23T01:31:20.625Z,16.50
2022-09-23T01:33:58.728Z,17.88
2022-09-23T01:36:39.307Z,17.65
2022-09-23T01:39:14.694Z,17.63
2022-09-23T01:41:50.342Z,17.42
2022-09-23T01:44:20.171Z,16.58
2022-09-23T01:46:59.742Z,16.88
2022-09-23T01:49:35.137Z,16.13
2022-09-23T01:52:16.088Z,16.02
2022-09-23T01:54:50.592Z,16.52
2022-09-23T01:57:21.468Z,16.60
2022-09-23T01:59:52.610Z,16.90
2022-09-23T02:02:28.189Z,17.73
2022-09-23T02:05:30.223Z,16.48
2022-09-23T02:08:06.235Z,15.80
2022-09-23T02:10:37.334Z,16.23
2022-09-23T02:13:13.870Z,16.58
2022-09-23T02:15:47.475Z,18.20
2022-09-23T02:18:29.166Z,18.67
2022-09-23T02:21:02.773Z,18.48
2022-09-23T02:23:39.979Z,16.17
2022-09-23T02:26:19.294Z,18.52
2022-09-23T02:29:04.445Z,17.73
2022-09-23T02:31:51.925Z,16.42
2022-09-23T02:34:37.215Z,15.85
2022-09-23T02:37:10.595Z,16.60
2022-09-23T02:40:05.277Z,16.67
2022-09-23T02:42:48.909Z,15.32
2022-09-23T02:45:15.635Z,16.10
2022-09-23T02:47:46.637Z,15.90
2022-09-23T02:50:13.732Z,16.52
2022-09-23T02:52:40.568Z,16.92
2022-09-23T02:55:11.882Z,16.17
2022-09-23T02:57:38.663Z,16.90
2022-09-23T03:00:05.732Z,16.17
2022-09-23T03:03:12.463Z,16.77
2022-09-23T03:05:50.041Z,15.13
2022-09-23T03:08:38.677Z,17.25
2022-09-23T03:11:13.388Z,15.20
2022-09-23T03:13:53.824Z,16.23
2022-09-23T03:16:43.758Z,15.60
2022-09-23T03:19:25.378Z,15.63
2022-09-23T03:22:29.757Z,17.52
2022-09-23T03:25:01.562Z,15.13
2022-09-23T03:27:32.321Z,16.60
2022-09-23T03:29:59.951Z,16.38
2022-09-23T03:32:28.910Z,17.63
2022-09-23T03:34:58.478Z,18.13
2022-09-23T03:37:32.275Z,16.13
2022-09-23T03:40:28.549Z,16.60
2022-09-23T03:42:57.360Z,15.52
2022-09-23T03:45:31.617Z,16.45
2022-09-23T03:47:58.171Z,17.55
2022-09-23T03:50:24.874Z,17.73
2022-09-23T03:52:51.306Z,16.23
2022-09-23T03:55:19.126Z,16.70
2022-09-23T03:57:45.718Z,15.32
2022-09-23T04:00:13.734Z,14.75
2022-09-23T04:02:40.633Z,15.43
2022-09-23T04:05:08.645Z,15.82
2022-09-23T04:07:34.970Z,16.23
2022-09-23T04:10:01.284Z,16.33
2022-09-23T04:12:27.662Z,16.88
2022-09-23T04:14:53.977Z,14.77
2022-09-23T04:17:20.291Z,13.40
2022-09-23T04:19:46.772Z,12.88
2022-09-23T04:22:13.337Z,14.05
2022-09-23T04:24:39.696Z,14.13
2022-09-23T04:27:06.295Z,14.85
2022-09-23T04:29:32.638Z,14.60
2022-09-23T04:31:59.122Z,15.75
2022-09-23T04:34:25.490Z,15.43
2022-09-23T04:36:51.910Z,16.27
2022-09-23T04:39:18.368Z,16.65
2022-09-23T04:41:45.287Z,16.92
2022-09-23T04:44:12.748Z,16.38
2022-09-23T04:46:43.801Z,15.70
2022-09-23T04:49:10.649Z,16.77
2022-09-23T04:51:37.039Z,18.27
2022-09-23T04:54:03.454Z,18.67
2022-09-23T04:56:33.681Z,16.58
2022-09-23T04:59:01.554Z,17.48
2022-09-23T05:01:34.442Z,17.20
2022-09-23T05:04:05.139Z,18.50
2022-09-23T05:06:34.975Z,18.52
2022-09-23T05:09:02.529Z,17.98
2022-09-23T05:11:31.232Z,19.38
2022-09-23T05:13:58.174Z,18.42
2022-09-23T05:16:25.492Z,18.83
2022-09-23T05:18:53.173Z,20.33
2022-09-23T05:21:21.569Z,21.00
2022-09-23T05:23:56.525Z,23.58
2022-09-23T05:26:25.382Z,21.17
2022-09-23T05:28:52.731Z,22.30
2022-09-23T05:31:21.333Z,23.20
2022-09-23T05:33:54.487Z,24.40
2022-09-23T05:36:22.975Z,24.67
2022-09-23T05:38:51.105Z,26.02
2022-09-23T05:41:19.404Z,28.10
2022-09-23T05:43:47.117Z,25.65
2022-09-23T05:46:15.910Z,25.23
2022-09-23T05:48:43.620Z,27.23
2022-09-23T05:51:14.519Z,27.08
2022-09-23T05:53:42.609Z,26.88
2022-09-23T05:56:08.927Z,26.02
2022-09-23T05:58:35.429Z,27.17
2022-09-23T06:01:09.351Z,25.77
2022-09-23T06:03:35.737Z,28.05
2022-09-23T06:06:02.051Z,27.55
2022-09-23T06:08:28.394Z,29.48
2022-09-23T06:10:54.822Z,29.35
2022-09-23T06:13:21.454Z,28.67
2022-09-23T06:15:47.866Z,29.00
2022-09-23T06:18:14.357Z,29.23
2022-09-23T06:20:40.719Z,30.90
2022-09-23T06:23:10.634Z,29.08
2022-09-23T06:25:41.029Z,28.55
2022-09-23T06:28:11.436Z,32.17
2022-09-23T06:30:39.539Z,29.58
2022-09-23T06:33:05.931Z,32.60
2022-09-23T06:35:35.123Z,32.42
2022-09-23T06:38:05.322Z,29.25
2022-09-23T06:40:31.908Z,31.75
2022-09-23T06:43:00.364Z,29.33
2022-09-23T06:45:27.641Z,24.55
2022-09-23T06:47:58.341Z,25.42
2022-09-23T06:50:27.693Z,25.33
2022-09-23T06:52:56.043Z,25.45
2022-09-23T06:55:27.885Z,24.25
2022-09-23T06:57:57.850Z,21.55
2022-09-23T07:00:25.242Z,17.27
2022-09-23T07:02:52.012Z,17.67
2022-09-23T07:05:18.394Z,19.42
2022-09-23T07:07:45.073Z,20.95
2022-09-23T07:10:12.137Z,23.00
2022-09-23T07:12:38.980Z,25.00
2022-09-23T07:15:05.961Z,21.40
2022-09-23T07:17:32.485Z,18.73
2022-09-23T07:19:59.222Z,17.10
2022-09-23T07:22:26.371Z,18.08
2022-09-23T07:24:56.590Z,22.13
2022-09-23T07:27:25.282Z,18.92
2022-09-23T07:29:52.080Z,17.00
2022-09-23T07:32:20.293Z,17.15
2022-09-23T07:34:47.199Z,18.92
2022-09-23T07:37:17.690Z,17.92
2022-09-23T07:39:45.032Z,17.30
2022-09-23T07:42:14.182Z,16.98
2022-09-23T07:44:43.913Z,16.65
2022-09-23T07:47:10.257Z,15.48
2022-09-23T07:49:36.981Z,15.52
2022-09-23T07:52:04.696Z,18.92
2022-09-23T07:54:31.779Z,17.95
2022-09-23T07:56:59.230Z,17.58
2022-09-23T07:59:26.942Z,17.90
2022-09-23T08:01:54.679Z,17.35
2022-09-23T08:04:22.231Z,17.20
2022-09-23T08:06:51.526Z,16.98
2022-09-23T08:09:19.910Z,16.80
2022-09-23T08:11:46.472Z,16.10
2022-09-23T08:14:14.410Z,14.65
2022-09-23T08:16:41.799Z,16.45
2022-09-23T08:19:08.668Z,15.73
2022-09-23T08:21:35.162Z,17.83
2022-09-23T08:24:01.667Z,18.27
2022-09-23T08:26:28.707Z,16.58
2022-09-23T08:28:56.367Z,19.50
2022-09-23T08:31:23.590Z,17.27
2022-09-23T08:33:57.765Z,19.73
2022-09-23T08:36:25.440Z,19.10
2022-09-23T08:38:52.274Z,19.63
2022-09-23T08:41:29.261Z,17.98
2022-09-23T08:44:03.813Z,12.20
2022-09-23T08:46:40.526Z,19.80
2022-09-23T08:49:09.017Z,18.80
2022-09-23T08:51:46.014Z,19.95
2022-09-23T08:54:13.704Z,18.88
2022-09-23T08:56:44.163Z,21.02
2022-09-23T08:59:40.358Z,16.90
2022-09-23T09:02:15.387Z,19.92
2022-09-23T09:04:44.541Z,20.35
2022-09-23T09:07:35.676Z,13.02
2022-09-23T09:10:19.280Z,13.50
2022-09-23T09:12:53.934Z,14.60
2022-09-23T09:15:24.657Z,16.90
2022-09-23T09:18:16.319Z,13.43
2022-09-23T09:20:48.933Z,13.23
2022-09-23T09:23:47.737Z,16.30
2022-09-23T09:26:22.198Z,12.25
2022-09-23T09:29:11.440Z,12.80
2022-09-23T09:31:49.022Z,10.13
2022-09-23T09:34:24.419Z,12.13
2022-09-23T09:37:07.264Z,12.68
2022-09-23T09:39:35.277Z,13.05
2022-09-23T09:42:02.640Z,11.23
2022-09-23T09:45:02.589Z,11.18
2022-09-23T09:47:49.765Z,9.55
2022-09-23T09:50:21.956Z,11.57
2022-09-23T09:52:48.889Z,11.88
2022-09-23T09:55:28.926Z,14.38
2022-09-23T09:58:01.547Z,15.05
2022-09-23T10:00:27.877Z,13.32
2022-09-23T10:03:01.758Z,14.65
2022-09-23T10:05:43.448Z,14.18
2022-09-23T10:08:34.847Z,13.10
2022-09-23T10:11:15.017Z,12.13
2022-09-23T10:14:02.283Z,10.77
2022-09-23T10:16:34.235Z,11.40
2022-09-23T10:19:11.256Z,13.30
2022-09-23T10:21:38.361Z,11.13
2022-09-23T10:24:06.943Z,11.13
2022-09-23T10:26:41.337Z,13.60
2022-09-23T10:31:53.738Z,13.68
2022-09-23T10:34:27.319Z,10.18
2022-09-23T10:37:14.383Z,10.32
2022-09-23T10:40:16.876Z,10.95
2022-09-23T10:43:33.392Z,10.68
2022-09-23T10:46:23.789Z,10.95
2022-09-23T10:49:27.585Z,8.85
2022-09-23T10:52:15.965Z,8.93
2022-09-23T10:55:19.840Z,7.63
2022-09-23T10:57:46.281Z,7.35
2022-09-23T11:01:00.976Z,7.50
2022-09-23T11:03:50.546Z,8.05
2022-09-23T11:06:40.245Z,7.60
2022-09-23T11:09:28.391Z,9.10
2022-09-23T11:12:08.231Z,7.90
2022-09-23T11:15:10.858Z,9.02
2022-09-23T11:18:19.526Z,9.20
2022-09-23T11:21:07.118Z,11.40
2022-09-23T11:23:55.419Z,9.70
2022-09-23T11:26:41.795Z,10.98
2022-09-23T11:29:26.884Z,10.85
2022-09-23T11:32:02.308Z,10.25
2022-09-23T11:34:54.940Z,12.57
2022-09-23T11:37:27.598Z,12.70
2022-09-23T11:40:18.938Z,12.60
2022-09-23T11:43:07.143Z,10.05
2022-09-23T11:45:39.705Z,10.70
2022-09-23T11:48:13.786Z,10.02
2022-09-23T11:50:49.882Z,10.30
2022-09-23T11:53:24.397Z,11.48
2022-09-23T11:56:23.991Z,10.02
2022-09-23T11:59:31.582Z,9.52
2022-09-23T12:02:19.645Z,8.60
2022-09-23T12:05:12.320Z,8.93
2022-09-23T12:07:48.612Z,9.85
2022-09-23T12:10:15.881Z,9.88
2022-09-23T12:12:55.897Z,8.70
2022-09-23T12:15:22.318Z,9.65
2022-09-23T12:18:01.250Z,9.60
2022-09-23T12:20:42.747Z,10.35
2022-09-23T12:23:27.357Z,7.90
2022-09-23T12:26:01.714Z,10.10
2022-09-23T12:31:14.852Z,9.48
2022-09-23T12:33:50.016Z,9.70
2022-09-23T12:36:24.057Z,10.07
2022-09-23T12:38:54.397Z,11.13
2022-09-23T12:41:26.835Z,11.02
2022-09-23T12:43:57.410Z,10.55
2022-09-23T12:46:26.684Z,8.52
2022-09-23T12:48:57.643Z,8.38
2022-09-23T12:51:26.183Z,11.13
2022-09-23T12:54:15.313Z,9.98
2022-09-23T12:56:43.218Z,7.90
2022-09-23T12:59:12.145Z,8.20
2022-09-23T13:01:39.137Z,12.27
2022-09-23T13:04:31.776Z,11.02
2022-09-23T13:07:07.537Z,9.57
2022-09-23T13:09:42.478Z,11.02
2022-09-23T13:12:19.453Z,8.40
2022-09-23T13:14:49.974Z,11.68
2022-09-23T13:17:32.080Z,11.20
2022-09-23T13:20:01.609Z,7.07
2022-09-23T13:22:48.678Z,9.32
2022-09-23T13:25:26.670Z,7.32
2022-09-23T13:27:55.640Z,8.75
2022-09-23T13:30:26.474Z,24.80
2022-09-23T13:33:12.804Z,9.40
2022-09-23T13:35:44.238Z,9.15
2022-09-23T13:38:26.014Z,7.72
2022-09-23T13:40:58.167Z,8.50
2022-09-23T13:43:34.717Z,6.90
2022-09-23T13:46:05.239Z,8.02
2022-09-23T13:48:32.193Z,8.82
2022-09-23T13:50:59.778Z,9.27
2022-09-23T13:53:30.031Z,9.10
2022-09-23T13:56:07.250Z,10.82
2022-09-23T13:58:35.487Z,8.20
2022-09-23T14:01:02.275Z,8.32
2022-09-23T14:03:35.867Z,12.38
2022-09-23T14:08:40.193Z,8.05
2022-09-23T14:11:06.806Z,8.68
2022-09-23T14:13:41.375Z,7.28
2022-09-23T14:16:11.437Z,8.02
2022-09-23T14:18:41.292Z,6.85
2022-09-23T14:21:25.776Z,7.80
2022-09-23T14:23:52.082Z,10.60
2022-09-23T14:26:19.121Z,7.18
2022-09-23T14:28:47.544Z,8.50
2022-09-23T14:31:13.990Z,7.60
2022-09-23T14:33:42.271Z,7.20
2022-09-23T14:36:39.168Z,8.57
2022-09-23T14:39:09.393Z,7.80
2022-09-23T14:41:43.043Z,7.43
2022-09-23T14:44:22.929Z,8.43
2022-09-23T14:46:56.775Z,8.48
2022-09-23T14:49:24.165Z,8.45
2022-09-23T14:51:54.651Z,8.52
2022-09-23T14:54:46.063Z,8.13
2022-09-23T14:57:31.716Z,14.00
2022-09-23T15:00:14.154Z,12.25
2022-09-23T15:02:44.222Z,14.95
2022-09-23T15:05:22.192Z,9.07
2022-09-23T15:07:55.209Z,10.07
2022-09-23T15:10:30.111Z,15.55
2022-09-23T15:13:08.441Z,15.13
2022-09-23T15:15:35.630Z,13.30
2022-09-23T15:18:07.933Z,11.23
2022-09-23T15:20:35.286Z,14.73
2022-09-23T15:23:01.715Z,13.68
2022-09-23T15:25:40.609Z,14.40
2022-09-23T15:28:09.925Z,9.32
2022-09-23T15:30:38.076Z,13.52
2022-09-23T15:33:05.526Z,12.45
2022-09-23T15:35:32.514Z,13.90
2022-09-23T15:38:02.037Z,14.25
2022-09-23T15:40:30.838Z,9.50
2022-09-23T15:42:59.376Z,13.02
2022-09-23T15:45:33.258Z,12.98
2022-09-23T15:48:07.241Z,14.05
2022-09-23T15:50:37.071Z,10.30
2022-09-23T15:53:06.209Z,9.80
2022-09-23T15:55:33.607Z,8.98
2022-09-23T15:58:00.461Z,8.43
2022-09-23T16:00:27.093Z,10.18
2022-09-23T16:02:54.086Z,9.73
2022-09-23T16:05:26.493Z,10.60
2022-09-23T16:07:52.999Z,10.27
2022-09-23T16:10:21.458Z,7.95
2022-09-23T16:12:48.870Z,10.15
2022-09-23T16:15:17.969Z,8.60
2022-09-23T16:17:45.193Z,10.18
2022-09-23T16:20:16.093Z,11.60
2022-09-23T16:22:42.458Z,7.60
2022-09-23T16:25:11.971Z,10.60
2022-09-23T16:27:40.008Z,12.30
2022-09-23T16:30:07.243Z,10.35
2022-09-23T16:32:33.544Z,10.43
2022-09-23T16:34:59.843Z,11.10
2022-09-23T16:37:26.189Z,10.48
2022-09-23T16:39:52.556Z,9.65
2022-09-23T16:42:19.101Z,10.73
2022-09-23T16:44:45.473Z,11.02
2022-09-23T16:47:11.778Z,10.50
2022-09-23T16:49:38.154Z,11.35
2022-09-23T16:52:04.499Z,11.02
2022-09-23T16:54:31.843Z,10.90
2022-09-23T16:56:58.998Z,11.88
2022-09-23T16:59:45.478Z,12.10
2022-09-23T17:02:30.406Z,17.83
2022-09-23T17:04:57.195Z,18.33
2022-09-23T17:07:23.539Z,16.05
2022-09-23T17:09:50.610Z,18.02
2022-09-23T17:12:24.582Z,18.20
2022-09-23T17:14:52.394Z,14.52
2022-09-23T17:17:18.919Z,19.70
2022-09-23T17:19:45.219Z,19.42
2022-09-23T17:22:11.549Z,19.02
2022-09-23T17:24:37.909Z,15.60
2022-09-23T17:27:04.235Z,15.90
2022-09-23T17:29:30.644Z,17.92
2022-09-23T17:31:57.061Z,16.00
2022-09-23T17:34:24.011Z,17.88
2022-09-23T17:36:50.727Z,18.27
2022-09-23T17:39:17.275Z,17.05
2022-09-23T17:41:45.275Z,16.48
2022-09-23T17:44:11.720Z,16.75
2022-09-23T17:46:38.139Z,16.95
2022-09-23T17:49:05.324Z,18.52
2022-09-23T17:51:31.632Z,17.23
2022-09-23T17:53:57.982Z,16.90
2022-09-23T17:56:26.371Z,16.70
2022-09-23T17:58:53.685Z,16.95
2022-09-23T18:01:25.887Z,16.80
2022-09-23T18:03:57.110Z,19.20
2022-09-23T18:06:25.620Z,21.27
2022-09-23T18:08:52.772Z,22.52
2022-09-23T18:11:22.382Z,24.15
2022-09-23T18:13:56.818Z,23.83
2022-09-23T18:18:56.096Z,25.25
2022-09-23T18:21:23.994Z,24.45
2022-09-23T18:23:50.533Z,25.08
2022-09-23T18:26:19.259Z,30.45
2022-09-23T18:28:45.947Z,33.00
2022-09-23T18:31:12.545Z,35.30
2022-09-23T18:33:39.156Z,35.70
2022-09-23T18:36:05.946Z,31.02
2022-09-23T18:38:32.781Z,34.33
2022-09-23T18:41:00.258Z,33.80
2022-09-23T18:43:37.408Z,31.80
2022-09-23T18:46:09.926Z,31.08
2022-09-23T18:48:54.981Z,32.15
2022-09-23T18:51:25.336Z,33.05
2022-09-23T18:53:57.399Z,37.70
2022-09-23T18:56:26.546Z,31.40
2022-09-23T18:58:55.025Z,33.20
2022-09-23T19:01:23.100Z,32.83
2022-09-23T19:03:55.097Z,32.45
2022-09-23T19:06:21.959Z,36.65
2022-09-23T19:08:53.032Z,31.40
2022-09-23T19:11:20.497Z,30.35
2022-09-23T19:13:47.247Z,30.58
2022-09-23T19:16:15.861Z,30.52
2022-09-23T19:18:45.576Z,33.42
2022-09-23T19:21:13.601Z,30.65
2022-09-23T19:23:44.420Z,32.97
2022-09-23T19:26:12.299Z,35.25
2022-09-23T19:28:39.314Z,39.28
2022-09-23T19:31:16.643Z,35.53
2022-09-23T19:33:46.266Z,38.90
2022-09-23T19:36:16.164Z,38.53
2022-09-23T19:38:42.483Z,38.15
2022-09-23T19:41:09.054Z,35.00
2022-09-23T19:43:38.254Z,35.53
2022-09-23T19:46:06.669Z,34.20
2022-09-23T19:48:34.990Z,32.53
2022-09-23T19:51:02.528Z,35.50
2022-09-23T19:53:28.838Z,35.20
2022-09-23T19:55:56.067Z,36.90
2022-09-23T19:58:23.100Z,36.70
2022-09-23T20:00:49.502Z,37.67
2022-09-23T20:03:17.592Z,41.72
2022-09-23T20:05:44.042Z,40.03
2022-09-23T20:08:10.660Z,41.60
2022-09-23T20:10:39.511Z,40.50
2022-09-23T20:13:05.908Z,40.67
2022-09-23T20:15:32.262Z,41.58
2022-09-23T20:17:58.596Z,40.45
2022-09-23T20:20:24.930Z,43.47
2022-09-23T20:22:52.709Z,44.38
2022-09-23T20:25:19.070Z,41.22
2022-09-23T20:27:51.138Z,44.88
2022-09-23T20:30:17.829Z,42.50
2022-09-23T20:32:45.002Z,44.85
2022-09-23T20:35:11.387Z,38.15
2022-09-23T20:37:37.746Z,42.00
2022-09-23T20:40:04.686Z,39.30
2022-09-23T20:42:31.868Z,43.42
2022-09-23T20:44:58.416Z,43.15
2022-09-23T20:47:24.873Z,42.13
2022-09-23T20:49:51.330Z,42.33
2022-09-23T20:52:18.029Z,41.22
2022-09-23T20:54:44.440Z,39.08
2022-09-23T20:57:14.026Z,40.97
2022-09-23T20:59:40.675Z,36.08
2022-09-23T21:02:07.842Z,39.47
2022-09-23T21:04:34.891Z,39.40
2022-09-23T21:07:01.241Z,39.22
2022-09-23T21:09:30.903Z,39.28
2022-09-23T21:11:57.883Z,38.85
2022-09-23T21:14:24.332Z,40.22
2022-09-23T21:16:51.410Z,40.45
2022-09-23T21:19:19.227Z,39.95
2022-09-23T21:21:45.888Z,37.85
2022-09-23T21:24:40.062Z,35.75
2022-09-23T21:26:59.112Z,36.67
2022-09-23T21:29:25.435Z,38.55
2022-09-23T21:31:51.777Z,37.33
2022-09-23T21:34:18.252Z,37.88
2022-09-23T21:36:45.170Z,38.78
2022-09-23T21:39:12.143Z,37.97
2022-09-23T21:41:39.062Z,39.75
2022-09-23T21:44:06.642Z,38.55
2022-09-23T21:46:33.884Z,40.15
2022-09-23T21:49:03.794Z,40.38
2022-09-23T21:51:35.121Z,39.85
2022-09-23T21:54:01.582Z,40.33
2022-09-23T21:56:35.038Z,40.97
2022-09-23T21:59:01.712Z,39.33
2022-09-23T22:01:30.684Z,42.42
2022-09-23T22:04:05.022Z,40.67
2022-09-23T22:06:32.018Z,40.45
2022-09-23T22:09:01.252Z,39.85
2022-09-23T22:11:51.792Z,40.45
2022-09-23T22:14:20.652Z,41.95
2022-09-23T22:16:47.037Z,38.75
2022-09-23T22:19:14.970Z,39.78
2022-09-23T22:21:42.893Z,44.60
2022-09-23T22:24:10.541Z,42.28
2022-09-23T22:26:42.552Z,51.25
2022-09-23T22:29:32.712Z,48.80
2022-09-23T22:32:19.515Z,52.47
2022-09-23T22:34:50.448Z,48.35
2022-09-23T22:37:21.153Z,58.42
2022-09-23T22:39:47.501Z,46.47
2022-09-23T22:42:14.246Z,52.00
2022-09-23T22:44:40.649Z,45.40
2022-09-23T22:47:07.999Z,47.65
2022-09-23T22:49:34.469Z,47.17
2022-09-23T22:52:02.281Z,48.50
2022-09-23T22:54:33.733Z,50.47
2022-09-23T22:57:04.019Z,46.22
2022-09-23T22:59:30.435Z,45.28
2022-09-23T23:01:57.401Z,50.38
2022-09-23T23:04:23.770Z,52.50
2022-09-23T23:06:50.069Z,49.10
2022-09-23T23:09:18.400Z,49.95
2022-09-23T23:11:45.426Z,53.33
2022-09-23T23:14:13.614Z,50.95
2022-09-23T23:16:40.607Z,51.83
2022-09-23T23:19:09.576Z,47.78
2022-09-23T23:21:36.809Z,50.10
2022-09-23T23:24:04.840Z,49.40
2022-09-23T23:26:33.315Z,47.15
2022-09-23T23:29:01.392Z,41.95
2022-09-23T23:31:29.156Z,44.45
2022-09-23T23:33:55.596Z,44.72
2022-09-23T23:36:23.380Z,46.10
2022-09-23T23:38:51.641Z,48.80
2022-09-23T23:41:21.494Z,48.80
2022-09-23T23:43:54.674Z,49.92
2022-09-23T23:46:21.350Z,47.78
2022-09-23T23:48:48.337Z,46.78
2022-09-23T23:51:15.646Z,49.10
2022-09-23T23:53:42.845Z,47.63
2022-09-23T23:56:12.297Z,47.83
2022-09-23T23:58:39.427Z,51.10
